createdAt,value
2023-06-10T00:00:06.416Z,5.65
2023-06-10T00:02:34.403Z,4.97
2023-06-10T00:05:02.402Z,5.53
2023-06-10T00:07:31.573Z,5.55
2023-06-10T00:09:59.422Z,4.97
2023-06-10T00:12:27.210Z,4.53
2023-06-10T00:14:54.965Z,5.15
2023-06-10T00:17:24.904Z,5.03
2023-06-10T00:19:52.932Z,5.45
2023-06-10T00:22:20.666Z,5.10
2023-06-10T00:24:49.799Z,5.60
2023-06-10T00:27:17.706Z,5.40
2023-06-10T00:29:45.465Z,5.47
2023-06-10T00:32:13.246Z,5.30
2023-06-10T00:34:41.070Z,5.07
2023-06-10T00:37:08.948Z,5.75
2023-06-10T00:39:36.738Z,4.82
2023-06-10T00:42:08.052Z,6.10
2023-06-10T00:44:35.833Z,4.63
2023-06-10T00:47:03.753Z,4.72
2023-06-10T00:49:31.560Z,5.35
2023-06-10T00:51:59.632Z,5.38
2023-06-10T00:54:27.935Z,6.07
2023-06-10T00:56:56.085Z,5.88
2023-06-10T00:59:26.362Z,5.55
2023-06-10T01:01:54.590Z,5.45
2023-06-10T01:04:22.835Z,5.57
2023-06-10T01:06:58.557Z,5.47
2023-06-10T01:09:34.465Z,4.90
2023-06-10T01:12:12.289Z,5.43
2023-06-10T01:14:45.966Z,5.20
2023-06-10T01:17:17.648Z,5.88
2023-06-10T01:19:46.087Z,5.95
2023-06-10T01:22:17.057Z,5.95
2023-06-10T01:24:45.088Z,5.53
2023-06-10T01:27:16.810Z,5.43
2023-06-10T01:29:50.151Z,6.15
2023-06-10T01:32:22.694Z,5.72
2023-06-10T01:34:52.111Z,5.85
2023-06-10T01:37:25.647Z,5.50
2023-06-10T01:39:54.065Z,5.80
2023-06-10T01:42:23.456Z,5.93
2023-06-10T01:44:51.506Z,5.97
2023-06-10T01:47:19.254Z,5.25
2023-06-10T01:49:47.039Z,5.85
2023-06-10T01:52:15.112Z,5.97
2023-06-10T01:54:44.220Z,5.40
2023-06-10T01:57:12.260Z,6.50
2023-06-10T01:59:40.252Z,6.40
2023-06-10T02:02:08.031Z,7.18
2023-06-10T02:04:36.069Z,6.28
2023-06-10T02:07:04.930Z,5.75
2023-06-10T02:09:33.330Z,5.65
2023-06-10T02:12:02.472Z,5.38
2023-06-10T02:14:30.213Z,6.40
2023-06-10T02:16:58.655Z,6.00
2023-06-10T02:19:28.546Z,5.97
2023-06-10T02:21:56.436Z,6.07
2023-06-10T02:24:24.322Z,5.78
2023-06-10T02:26:53.013Z,6.05
2023-06-10T02:29:22.095Z,5.68
2023-06-10T02:31:49.873Z,5.82
2023-06-10T02:34:17.667Z,5.75
2023-06-10T02:36:45.483Z,6.38
2023-06-10T02:39:13.365Z,6.10
2023-06-10T02:41:41.144Z,5.70
2023-06-10T02:44:08.890Z,5.75
2023-06-10T02:46:38.020Z,5.53
2023-06-10T02:49:05.924Z,5.78
2023-06-10T02:51:33.693Z,5.35
2023-06-10T02:54:01.439Z,6.03
2023-06-10T02:56:29.343Z,6.05
2023-06-10T02:58:57.161Z,5.97
2023-06-10T03:01:24.953Z,5.90
2023-06-10T03:03:54.136Z,5.93
2023-06-10T03:06:22.004Z,5.93
2023-06-10T03:08:49.785Z,5.80
2023-06-10T03:11:17.573Z,5.50
2023-06-10T03:13:45.545Z,6.10
2023-06-10T03:16:13.837Z,6.28
2023-06-10T03:18:42.265Z,6.10
2023-06-10T03:21:11.504Z,6.43
2023-06-10T03:23:39.296Z,6.20
2023-06-10T03:26:07.348Z,6.35
2023-06-10T03:28:35.134Z,6.20
2023-06-10T03:31:02.941Z,6.30
2023-06-10T03:33:31.113Z,5.97
2023-06-10T03:35:58.848Z,6.28
2023-06-10T03:38:27.922Z,6.72
2023-06-10T03:40:55.758Z,5.95
2023-06-10T03:43:23.643Z,6.57
2023-06-10T03:45:51.598Z,6.43
2023-06-10T03:48:19.410Z,6.18
2023-06-10T03:50:48.574Z,7.15
2023-06-10T03:53:16.399Z,6.60
2023-06-10T03:55:45.904Z,6.05
2023-06-10T03:58:14.235Z,6.55
2023-06-10T04:00:43.223Z,5.88
2023-06-10T04:03:16.090Z,6.45
2023-06-10T04:05:44.160Z,6.97
2023-06-10T04:08:12.096Z,6.00
2023-06-10T04:10:39.866Z,6.18
2023-06-10T04:13:10.005Z,5.65
2023-06-10T04:15:37.887Z,5.68
2023-06-10T04:18:06.673Z,6.57
2023-06-10T04:20:34.565Z,6.38
2023-06-10T04:23:02.342Z,6.07
2023-06-10T04:25:30.100Z,6.18
2023-06-10T04:27:57.842Z,5.70
2023-06-10T04:30:26.923Z,6.25
2023-06-10T04:32:55.405Z,6.63
2023-06-10T04:35:23.590Z,6.30
2023-06-10T04:37:51.480Z,6.38
2023-06-10T04:40:19.224Z,5.78
2023-06-10T04:42:47.069Z,5.90
2023-06-10T04:45:14.817Z,6.50
2023-06-10T04:47:44.579Z,6.32
2023-06-10T04:50:13.075Z,6.05
2023-06-10T04:52:42.456Z,6.22
2023-06-10T04:55:11.344Z,6.35
2023-06-10T04:57:39.208Z,6.55
2023-06-10T05:00:09.474Z,6.50
2023-06-10T05:02:37.306Z,7.13
2023-06-10T05:05:07.559Z,6.00
2023-06-10T05:07:35.609Z,7.40
2023-06-10T05:10:04.077Z,6.35
2023-06-10T05:12:31.849Z,6.60
2023-06-10T05:14:59.626Z,6.90
2023-06-10T05:17:27.368Z,6.13
2023-06-10T05:19:55.159Z,6.78
2023-06-10T05:22:25.064Z,7.22
2023-06-10T05:24:53.525Z,7.40
2023-06-10T05:27:22.375Z,7.70
2023-06-10T05:29:50.578Z,6.85
2023-06-10T05:32:18.403Z,7.18
2023-06-10T05:34:46.281Z,6.43
2023-06-10T05:37:15.397Z,7.38
2023-06-10T05:39:44.487Z,7.53
2023-06-10T05:42:12.309Z,7.90
2023-06-10T05:44:40.109Z,7.28
2023-06-10T05:47:08.124Z,6.63
2023-06-10T05:49:36.491Z,6.70
2023-06-10T05:52:04.572Z,7.38
2023-06-10T05:54:32.531Z,7.20
2023-06-10T05:57:01.674Z,6.88
2023-06-10T05:59:29.435Z,7.72
2023-06-10T06:01:57.255Z,7.40
2023-06-10T06:04:25.014Z,7.47
2023-06-10T06:06:52.816Z,7.40
2023-06-10T06:09:20.738Z,7.03
2023-06-10T06:11:48.553Z,7.35
2023-06-10T06:14:17.690Z,7.43
2023-06-10T06:16:45.452Z,6.63
2023-06-10T06:19:13.231Z,7.20
2023-06-10T06:21:41.039Z,7.50
2023-06-10T06:24:09.391Z,7.43
2023-06-10T06:26:37.212Z,7.57
2023-06-10T06:29:04.988Z,7.03
2023-06-10T06:31:34.173Z,7.20
2023-06-10T06:34:02.127Z,7.35
2023-06-10T06:36:29.899Z,7.82
2023-06-10T06:38:59.566Z,7.38
2023-06-10T06:41:28.558Z,7.78
2023-06-10T06:43:56.415Z,7.50
2023-06-10T06:46:24.334Z,7.85
2023-06-10T06:48:54.562Z,7.45
2023-06-10T06:51:22.413Z,7.15
2023-06-10T06:53:51.415Z,7.70
2023-06-10T06:56:19.286Z,8.10
2023-06-10T06:58:47.031Z,8.68
2023-06-10T07:01:15.030Z,7.50
2023-06-10T07:03:43.156Z,7.82
2023-06-10T07:06:12.258Z,8.15
2023-06-10T07:08:40.009Z,8.25
2023-06-10T07:11:07.757Z,8.07
2023-06-10T07:13:35.549Z,7.55
2023-06-10T07:16:03.468Z,8.57
2023-06-10T07:18:31.212Z,7.78
2023-06-10T07:20:58.963Z,8.60
2023-06-10T07:23:28.047Z,8.35
2023-06-10T07:25:55.789Z,7.85
2023-06-10T07:28:23.569Z,8.75
2023-06-10T07:30:51.600Z,7.85
2023-06-10T07:33:19.370Z,8.13
2023-06-10T07:35:47.162Z,8.20
2023-06-10T07:38:14.915Z,7.82
2023-06-10T07:40:44.033Z,7.45
2023-06-10T07:43:11.758Z,8.35
2023-06-10T07:45:41.675Z,7.47
2023-06-10T07:48:09.559Z,7.90
2023-06-10T07:50:37.712Z,7.97
2023-06-10T07:53:05.631Z,8.00
2023-06-10T07:55:33.432Z,8.90
2023-06-10T07:58:02.546Z,7.82
2023-06-10T08:00:30.360Z,7.85
2023-06-10T08:02:58.195Z,7.85
2023-06-10T08:05:26.155Z,7.78
2023-06-10T08:07:54.053Z,7.38
2023-06-10T08:10:21.817Z,7.82
2023-06-10T08:12:49.608Z,6.93
2023-06-10T08:15:18.713Z,7.10
2023-06-10T08:17:46.531Z,8.30
2023-06-10T08:20:14.401Z,7.22
2023-06-10T08:22:42.144Z,10.15
2023-06-10T08:25:11.189Z,7.50
2023-06-10T08:27:39.184Z,7.65
2023-06-10T08:30:08.991Z,7.25
2023-06-10T08:32:38.342Z,7.22
2023-06-10T08:35:07.149Z,7.82
2023-06-10T08:37:35.075Z,7.35
2023-06-10T08:40:02.873Z,7.30
2023-06-10T08:42:36.482Z,7.30
2023-06-10T08:45:07.165Z,7.00
2023-06-10T08:47:42.562Z,7.90
2023-06-10T08:50:12.817Z,7.80
2023-06-10T08:52:45.314Z,6.70
2023-06-10T08:55:17.015Z,7.25
2023-06-10T08:57:45.618Z,6.82
2023-06-10T09:00:15.078Z,5.90
2023-06-10T09:02:45.441Z,5.80
2023-06-10T09:05:13.948Z,6.22
2023-06-10T09:07:41.741Z,6.45
2023-06-10T09:10:10.842Z,6.00
2023-06-10T09:12:39.628Z,5.28
2023-06-10T09:15:09.003Z,5.60
2023-06-10T09:17:39.075Z,5.70
2023-06-10T09:20:11.033Z,6.15
2023-06-10T09:22:39.445Z,5.85
2023-06-10T09:25:09.988Z,5.85
2023-06-10T09:27:49.893Z,6.68
2023-06-10T09:30:28.146Z,5.65
2023-06-10T09:32:57.997Z,5.13
2023-06-10T09:35:28.686Z,6.15
2023-06-10T09:37:58.254Z,6.05
2023-06-10T09:40:26.387Z,5.68
2023-06-10T09:42:56.922Z,5.95
2023-06-10T09:45:25.546Z,6.03
2023-06-10T09:47:56.915Z,5.88
2023-06-10T09:50:24.986Z,5.78
2023-06-10T09:52:54.682Z,6.47
2023-06-10T09:55:22.562Z,5.82
2023-06-10T09:57:55.239Z,5.97
2023-06-10T10:00:24.850Z,6.18
2023-06-10T10:02:55.058Z,5.82
2023-06-10T10:05:24.519Z,5.68
2023-06-10T10:07:54.330Z,5.53
2023-06-10T10:10:23.264Z,5.40
2023-06-10T10:12:57.095Z,5.78
2023-06-10T10:15:27.249Z,5.47
2023-06-10T10:18:00.116Z,5.72
2023-06-10T10:20:31.621Z,5.10
2023-06-10T10:23:02.004Z,5.93
2023-06-10T10:25:32.172Z,5.90
2023-06-10T10:28:09.838Z,6.60
2023-06-10T10:30:42.821Z,6.25
2023-06-10T10:33:15.102Z,6.07
2023-06-10T10:35:44.501Z,6.07
2023-06-10T10:38:14.023Z,5.90
2023-06-10T10:40:43.000Z,6.22
2023-06-10T10:43:11.716Z,6.10
2023-06-10T10:45:39.733Z,6.82
2023-06-10T10:48:12.809Z,6.55
2023-06-10T10:50:41.804Z,6.32
2023-06-10T10:53:10.038Z,6.20
2023-06-10T10:55:39.375Z,6.50
2023-06-10T10:58:09.254Z,5.57
2023-06-10T11:00:38.575Z,5.85
2023-06-10T11:03:11.359Z,6.30
2023-06-10T11:05:42.184Z,6.40
2023-06-10T11:08:10.938Z,5.43
2023-06-10T11:10:41.655Z,5.60
2023-06-10T11:13:10.927Z,5.55
2023-06-10T11:15:45.080Z,5.95
2023-06-10T11:18:26.223Z,5.97
2023-06-10T11:20:56.643Z,5.90
2023-06-10T11:23:45.011Z,5.97
2023-06-10T11:26:23.211Z,5.40
2023-06-10T11:29:10.677Z,6.20
2023-06-10T11:31:43.917Z,5.57
2023-06-10T11:34:12.319Z,6.20
2023-06-10T11:36:46.671Z,6.18
2023-06-10T11:39:14.938Z,5.75
2023-06-10T11:41:44.455Z,5.93
2023-06-10T11:44:15.551Z,5.68
2023-06-10T11:46:46.390Z,7.05
2023-06-10T11:49:14.449Z,6.05
2023-06-10T11:51:50.000Z,6.55
2023-06-10T11:54:19.046Z,8.50
2023-06-10T11:56:48.604Z,6.45
2023-06-10T11:59:16.668Z,6.20
2023-06-10T12:01:45.579Z,6.05
2023-06-10T12:04:15.132Z,5.82
2023-06-10T12:06:44.445Z,5.80
2023-06-10T12:09:24.283Z,6.45
2023-06-10T12:11:56.350Z,6.15
2023-06-10T12:14:52.435Z,5.85
2023-06-10T12:17:20.247Z,5.80
2023-06-10T12:19:48.645Z,6.32
2023-06-10T12:22:17.221Z,5.50
2023-06-10T12:25:00.377Z,5.00
2023-06-10T12:27:31.334Z,5.53
2023-06-10T12:30:01.910Z,5.20
2023-06-10T12:32:43.759Z,5.40
2023-06-10T12:35:13.566Z,5.47
2023-06-10T12:37:43.414Z,5.50
2023-06-10T12:40:13.230Z,5.22
2023-06-10T12:42:43.007Z,5.53
2023-06-10T12:45:13.022Z,5.75
2023-06-10T12:47:42.272Z,5.78
2023-06-10T12:50:13.105Z,5.53
2023-06-10T12:52:42.090Z,5.78
2023-06-10T12:55:10.835Z,5.90
2023-06-10T12:57:38.898Z,5.50
2023-06-10T13:00:11.171Z,6.03
2023-06-10T13:02:38.951Z,5.88
2023-06-10T13:05:07.033Z,5.72
2023-06-10T13:07:34.911Z,5.75
2023-06-10T13:10:02.809Z,5.05
2023-06-10T13:12:42.869Z,5.13
2023-06-10T13:15:16.676Z,4.85
2023-06-10T13:17:44.775Z,5.45
2023-06-10T13:20:12.807Z,4.88
2023-06-10T13:22:40.712Z,5.13
2023-06-10T13:25:09.493Z,4.80
2023-06-10T13:27:39.879Z,5.07
2023-06-10T13:30:09.107Z,4.82
2023-06-10T13:32:38.413Z,4.97
2023-06-10T13:35:07.549Z,5.30
2023-06-10T13:37:35.584Z,5.68
2023-06-10T13:40:03.902Z,5.07
2023-06-10T13:42:31.843Z,5.00
2023-06-10T13:44:59.640Z,4.38
2023-06-10T13:47:27.740Z,4.38
2023-06-10T13:49:57.938Z,4.80
2023-06-10T13:52:25.993Z,4.70
2023-06-10T13:54:53.810Z,4.30
2023-06-10T13:57:21.570Z,5.03
2023-06-10T13:59:49.365Z,4.60
2023-06-10T14:02:17.978Z,4.38
2023-06-10T14:04:45.992Z,4.70
2023-06-10T14:07:15.092Z,4.70
2023-06-10T14:09:43.006Z,4.60
2023-06-10T14:12:12.346Z,4.40
2023-06-10T14:14:40.259Z,4.30
2023-06-10T14:17:08.301Z,4.30
2023-06-10T14:19:36.244Z,4.55
2023-06-10T14:22:06.530Z,5.03
2023-06-10T14:24:38.636Z,4.40
2023-06-10T14:27:07.503Z,4.88
2023-06-10T14:29:36.265Z,4.50
2023-06-10T14:32:06.475Z,4.50
2023-06-10T14:34:37.087Z,4.90
2023-06-10T14:37:08.250Z,4.80
2023-06-10T14:39:37.699Z,4.65
2023-06-10T14:42:06.768Z,5.10
2023-06-10T14:44:34.665Z,6.15
2023-06-10T14:47:02.443Z,5.03
2023-06-10T14:49:30.232Z,4.70
2023-06-10T14:51:58.081Z,5.05
2023-06-10T14:54:25.881Z,5.07
2023-06-10T14:56:54.969Z,4.43
2023-06-10T14:59:22.776Z,4.70
2023-06-10T15:01:50.574Z,5.50
2023-06-10T15:04:20.302Z,4.75
2023-06-10T15:06:51.261Z,4.80
2023-06-10T15:09:19.172Z,4.95
2023-06-10T15:11:46.935Z,4.68
2023-06-10T15:14:16.181Z,5.20
2023-06-10T15:16:47.211Z,4.70
2023-06-10T15:19:15.301Z,4.93
2023-06-10T15:21:43.114Z,4.60
2023-06-10T15:24:11.720Z,5.38
2023-06-10T15:26:39.518Z,5.22
2023-06-10T15:29:08.362Z,4.60
2023-06-10T15:31:37.570Z,4.70
2023-06-10T15:34:08.090Z,5.50
2023-06-10T15:36:37.226Z,4.80
2023-06-10T15:39:07.676Z,4.85
2023-06-10T15:41:35.769Z,5.07
2023-06-10T15:44:03.680Z,4.80
2023-06-10T15:46:32.175Z,4.82
2023-06-10T15:49:01.481Z,4.78
2023-06-10T15:51:29.237Z,5.50
2023-06-10T15:53:57.636Z,4.63
2023-06-10T15:56:26.091Z,4.65
2023-06-10T15:58:57.035Z,4.68
2023-06-10T16:01:25.103Z,5.00
2023-06-10T16:03:55.107Z,4.60
2023-06-10T16:06:24.321Z,5.47
2023-06-10T16:08:52.256Z,4.85
2023-06-10T16:11:20.707Z,5.10
2023-06-10T16:13:48.458Z,5.03
2023-06-10T16:16:16.388Z,4.30
2023-06-10T16:18:44.144Z,4.55
2023-06-10T16:21:11.963Z,4.78
2023-06-10T16:23:41.158Z,4.97
2023-06-10T16:26:08.954Z,4.05
2023-06-10T16:28:36.715Z,4.65
2023-06-10T16:31:04.956Z,4.35
2023-06-10T16:33:32.970Z,4.15
2023-06-10T16:36:00.868Z,4.80
2023-06-10T16:38:28.710Z,4.10
2023-06-10T16:40:58.613Z,4.00
2023-06-10T16:43:27.558Z,4.68
2023-06-10T16:45:56.403Z,4.72
2023-06-10T16:48:24.317Z,4.30
2023-06-10T16:50:52.394Z,4.50
2023-06-10T16:53:20.393Z,4.45
2023-06-10T16:55:48.189Z,4.63
2023-06-10T16:58:17.365Z,4.40
2023-06-10T17:00:46.849Z,4.88
2023-06-10T17:03:14.994Z,4.30
2023-06-10T17:05:43.152Z,4.53
2023-06-10T17:08:11.042Z,4.50
2023-06-10T17:10:38.810Z,4.25
2023-06-10T17:13:06.803Z,4.28
2023-06-10T17:15:36.260Z,4.30
2023-06-10T17:18:04.391Z,4.45
2023-06-10T17:20:32.319Z,4.95
2023-06-10T17:23:00.173Z,4.80
2023-06-10T17:25:27.936Z,4.90
2023-06-10T17:27:55.862Z,5.07
2023-06-10T17:30:23.702Z,4.78
2023-06-10T17:32:52.901Z,4.65
2023-06-10T17:35:20.813Z,4.63
2023-06-10T17:37:48.564Z,4.20
2023-06-10T17:40:16.381Z,4.32
2023-06-10T17:42:44.220Z,4.38
2023-06-10T17:45:12.627Z,4.97
2023-06-10T17:47:40.644Z,4.45
2023-06-10T17:50:10.896Z,4.40
2023-06-10T17:52:38.661Z,4.90
2023-06-10T17:55:06.965Z,4.13
2023-06-10T17:57:34.960Z,4.40
2023-06-10T18:00:02.779Z,4.13
2023-06-10T18:02:30.610Z,4.35
2023-06-10T18:04:58.406Z,4.40
2023-06-10T18:07:27.522Z,4.38
2023-06-10T18:09:55.330Z,4.53
2023-06-10T18:12:23.317Z,4.05
2023-06-10T18:14:51.212Z,4.13
2023-06-10T18:17:19.107Z,4.20
2023-06-10T18:19:46.899Z,4.57
2023-06-10T18:22:14.737Z,3.88
2023-06-10T18:24:44.061Z,4.47
2023-06-10T18:27:14.103Z,4.15
2023-06-10T18:29:43.434Z,4.15
2023-06-10T18:32:11.722Z,4.38
2023-06-10T18:34:39.548Z,4.05
2023-06-10T18:37:09.077Z,4.20
2023-06-10T18:39:37.084Z,3.92
2023-06-10T18:42:07.625Z,3.72
2023-06-10T18:44:35.518Z,4.03
2023-06-10T18:47:05.108Z,3.65
2023-06-10T18:49:33.569Z,4.05
2023-06-10T18:52:01.340Z,4.40
2023-06-10T18:54:29.218Z,4.13
2023-06-10T18:56:59.147Z,4.60
2023-06-10T18:59:28.385Z,4.68
2023-06-10T19:01:56.324Z,4.50
2023-06-10T19:04:24.232Z,4.00
2023-06-10T19:06:52.173Z,4.90
2023-06-10T19:09:19.992Z,4.47
2023-06-10T19:11:47.771Z,4.82
2023-06-10T19:14:15.636Z,5.00
2023-06-10T19:16:44.883Z,4.38
2023-06-10T19:19:12.855Z,5.57
2023-06-10T19:21:40.667Z,4.72
2023-06-10T19:24:11.108Z,4.40
2023-06-10T19:26:41.726Z,4.13
2023-06-10T19:29:09.813Z,4.32
2023-06-10T19:31:37.730Z,4.50
2023-06-10T19:34:06.918Z,4.38
2023-06-10T19:36:34.750Z,4.78
2023-06-10T19:39:02.574Z,4.90
2023-06-10T19:41:30.369Z,4.68
2023-06-10T19:43:58.137Z,4.75
2023-06-10T19:46:26.039Z,4.93
2023-06-10T19:48:53.832Z,5.28
2023-06-10T19:51:22.981Z,4.75
2023-06-10T19:53:50.754Z,4.60
2023-06-10T19:56:22.929Z,4.57
2023-06-10T19:58:51.076Z,5.07
2023-06-10T20:01:19.503Z,4.55
2023-06-10T20:03:47.481Z,4.50
2023-06-10T20:06:16.056Z,4.65
2023-06-10T20:08:45.273Z,4.68
2023-06-10T20:11:13.620Z,4.72
2023-06-10T20:13:41.430Z,4.90
2023-06-10T20:16:09.216Z,4.93
2023-06-10T20:18:37.557Z,5.20
2023-06-10T20:21:05.588Z,4.65
2023-06-10T20:23:33.380Z,4.80
2023-06-10T20:26:02.563Z,5.20
2023-06-10T20:28:30.369Z,5.03
2023-06-10T20:30:58.176Z,5.13
2023-06-10T20:33:25.937Z,5.10
2023-06-10T20:35:53.707Z,4.90
2023-06-10T20:38:21.543Z,4.70
2023-06-10T20:40:49.319Z,4.88
2023-06-10T20:43:18.762Z,4.85
2023-06-10T20:45:46.780Z,5.10
2023-06-10T20:48:15.629Z,5.07
2023-06-10T20:50:43.546Z,6.05
2023-06-10T20:53:11.318Z,5.53
2023-06-10T20:55:39.119Z,6.32
2023-06-10T20:58:06.922Z,5.68
2023-06-10T21:00:36.040Z,5.32
2023-06-10T21:03:03.998Z,5.57
2023-06-10T21:05:31.904Z,5.20
2023-06-10T21:07:59.705Z,5.40
2023-06-10T21:10:28.246Z,5.00
2023-06-10T21:12:56.270Z,4.93
2023-06-10T21:15:24.100Z,5.50
2023-06-10T21:17:53.275Z,4.78
2023-06-10T21:20:21.215Z,5.18
2023-06-10T21:22:48.990Z,4.75
2023-06-10T21:25:16.800Z,5.20
2023-06-10T21:27:44.785Z,5.40
2023-06-10T21:30:12.988Z,5.70
2023-06-10T21:32:40.884Z,5.38
2023-06-10T21:35:10.697Z,5.30
2023-06-10T21:37:38.859Z,5.15
2023-06-10T21:40:08.098Z,5.38
2023-06-10T21:42:35.888Z,5.28
2023-06-10T21:45:03.793Z,5.47
2023-06-10T21:47:31.574Z,5.05
2023-06-10T21:49:59.510Z,4.70
2023-06-10T21:52:28.660Z,5.00
2023-06-10T21:54:56.533Z,5.35
2023-06-10T21:57:25.075Z,5.00
2023-06-10T21:59:53.788Z,5.28
2023-06-10T22:02:21.750Z,4.32
2023-06-10T22:04:49.617Z,4.82
2023-06-10T22:07:17.673Z,5.05
2023-06-10T22:09:49.648Z,4.72
2023-06-10T22:12:17.947Z,4.65
2023-06-10T22:14:45.974Z,4.72
2023-06-10T22:17:14.011Z,4.70
2023-06-10T22:19:42.542Z,5.03
2023-06-10T22:22:10.846Z,4.38
2023-06-10T22:24:39.008Z,4.30
2023-06-10T22:27:09.515Z,4.70
2023-06-10T22:29:38.105Z,4.78
2023-06-10T22:32:06.657Z,4.32
2023-06-10T22:34:34.496Z,4.38
2023-06-10T22:37:02.377Z,4.50
2023-06-10T22:39:30.111Z,4.18
2023-06-10T22:41:57.876Z,4.00
2023-06-10T22:44:26.960Z,4.38
2023-06-10T22:46:54.766Z,4.30
2023-06-10T22:49:22.785Z,4.03
2023-06-10T22:51:50.566Z,4.22
2023-06-10T22:54:18.367Z,4.75
2023-06-10T22:56:46.192Z,4.65
2023-06-10T22:59:14.024Z,4.45
2023-06-10T23:01:43.166Z,4.75
2023-06-10T23:04:11.018Z,4.22
2023-06-10T23:06:38.816Z,4.18
2023-06-10T23:09:06.605Z,4.10
2023-06-10T23:11:34.361Z,4.00
2023-06-10T23:14:02.127Z,4.15
2023-06-10T23:16:30.024Z,4.35
2023-06-10T23:18:59.806Z,4.15
2023-06-10T23:21:29.747Z,4.38
2023-06-10T23:24:00.746Z,3.88
2023-06-10T23:26:29.506Z,5.00
2023-06-10T23:28:57.334Z,4.40
2023-06-10T23:31:25.093Z,4.32
2023-06-10T23:33:53.038Z,4.47
2023-06-10T23:36:23.349Z,3.90
2023-06-10T23:38:51.795Z,4.53
2023-06-10T23:41:19.568Z,4.00
2023-06-10T23:43:47.325Z,4.40
2023-06-10T23:46:15.146Z,4.60
2023-06-10T23:48:42.990Z,3.90
2023-06-10T23:51:11.126Z,4.47
2023-06-10T23:53:40.375Z,4.82
2023-06-10T23:56:08.396Z,4.88
2023-06-10T23:58:36.344Z,3.90
